Time;durP1;ratioP1;P1;durP2;ratioP2;P2;SDS_P1;SDS_P2;PMS_P1;PMS_P2;Temp;Humidity;BMP_temperature;BMP_pressure;BME280_temperature;BME280_humidity;BME280_pressure;Samples;Min_cycle;Max_cycle;Signal;HPM_P1;HPM_P2
2023/03/18 00:00:17;;;;;;;0.60;0.60;;;;;;;5.27;85.88;99976.84;5032897;28;20807;-64
2023/03/18 00:02:46;;;;;;;0.70;0.70;;;;;;;5.15;87.55;99981.06;5032700;28;20209;-62
2023/03/18 00:05:13;;;;;;;0.70;0.70;;;;;;;5.15;88.10;99984.47;5032886;28;20208;-64
2023/03/18 00:07:41;;;;;;;0.80;0.80;;;;;;;5.16;87.41;99978.56;5032692;28;20220;-64
2023/03/18 00:10:10;;;;;;;0.60;0.60;;;;;;;5.11;86.89;99980.22;5032926;28;20559;-64
2023/03/18 00:12:38;;;;;;;0.60;0.60;;;;;;;5.11;86.40;99969.19;5032705;28;20213;-64
2023/03/18 00:15:06;;;;;;;0.60;0.60;;;;;;;5.16;86.45;99968.38;5032547;28;20206;-64
2023/03/18 00:17:33;;;;;;;0.60;0.60;;;;;;;5.10;86.17;99968.38;5032633;28;20213;-65
2023/03/18 00:20:04;;;;;;;0.60;0.60;;;;;;;4.94;86.86;99961.59;5032229;28;20279;-64
2023/03/18 00:22:32;;;;;;;0.60;0.60;;;;;;;4.98;87.05;99968.34;5032546;28;20300;-64
2023/03/18 00:25:00;;;;;;;0.70;0.70;;;;;;;4.88;87.47;99953.94;5032373;28;20677;-64
2023/03/18 00:27:27;;;;;;;0.60;0.60;;;;;;;5.00;87.82;99958.19;5032796;28;20265;-64
2023/03/18 00:29:54;;;;;;;0.60;0.60;;;;;;;5.12;87.49;99966.69;5032351;28;20201;-64
2023/03/18 00:32:22;;;;;;;0.60;0.60;;;;;;;5.13;87.41;99958.22;5032002;28;20239;-64
2023/03/18 00:34:49;;;;;;;0.70;0.70;;;;;;;4.90;87.05;99944.63;5032250;28;20259;-64
2023/03/18 00:37:26;;;;;;;0.60;0.60;;;;;;;4.75;87.29;99939.50;5032100;28;20284;-64
2023/03/18 00:39:53;;;;;;;0.70;0.70;;;;;;;4.87;87.67;99948.88;5032168;28;20294;-64
2023/03/18 00:42:22;;;;;;;0.70;0.70;;;;;;;4.82;87.62;99951.38;5032025;28;20212;-64
2023/03/18 00:44:49;;;;;;;0.60;0.60;;;;;;;4.87;88.07;99946.31;5032123;28;20209;-64
2023/03/18 00:47:16;;;;;;;0.70;0.70;;;;;;;4.90;87.84;99931.94;5031963;28;20205;-64
2023/03/18 00:49:43;;;;;;;0.70;0.70;;;;;;;4.96;88.00;99939.56;5032086;28;20673;-64
2023/03/18 00:52:09;;;;;;;0.60;0.60;;;;;;;5.00;87.56;99946.34;5031864;28;20213;-64
2023/03/18 00:54:36;;;;;;;0.60;0.60;;;;;;;5.14;87.52;99953.94;5032061;28;20209;-64
2023/03/18 00:57:04;;;;;;;0.70;0.70;;;;;;;5.24;87.32;99950.56;5031893;28;20212;-64
2023/03/18 00:59:33;;;;;;;0.60;0.60;;;;;;;5.29;87.73;99947.22;5031674;28;20260;-64
2023/03/18 01:02:00;;;;;;;0.60;0.60;;;;;;;5.33;87.73;99949.75;5031926;28;20236;-64
2023/03/18 01:04:27;;;;;;;0.70;0.70;;;;;;;5.36;87.48;99942.13;5031680;28;20209;-65
2023/03/18 01:06:54;;;;;;;0.50;0.50;;;;;;;5.32;87.73;99937.88;5031187;28;20213;-65
2023/03/18 01:09:22;;;;;;;0.70;0.70;;;;;;;5.28;88.33;99942.97;5031668;28;20666;-65
2023/03/18 01:11:49;;;;;;;0.70;0.70;;;;;;;5.29;88.02;99944.66;5031737;28;20300;-64
2023/03/18 01:14:16;;;;;;;0.70;0.70;;;;;;;5.37;88.10;99936.16;5031670;28;20209;-64
2023/03/18 01:16:45;;;;;;;0.50;0.50;;;;;;;5.42;87.20;99944.66;5031828;28;20238;-64
2023/03/18 01:19:12;;;;;;;0.50;0.50;;;;;;;5.41;86.72;99948.03;5031755;28;20225;-64
2023/03/18 01:21:39;;;;;;;0.60;0.60;;;;;;;5.45;86.56;99940.41;5031468;28;20216;-65
2023/03/18 01:24:07;;;;;;;0.50;0.50;;;;;;;5.50;85.90;99936.16;5031643;28;20700;-65
2023/03/18 01:26:35;;;;;;;0.50;0.50;;;;;;;5.46;85.80;99920.94;5031690;28;20585;-64
2023/03/18 01:29:02;;;;;;;0.53;0.53;;;;;;;5.63;85.32;99939.53;5031630;28;20693;-64
2023/03/18 01:31:29;;;;;;;0.60;0.60;;;;;;;5.65;85.41;99928.53;5031510;28;20713;-63
2023/03/18 01:33:58;;;;;;;0.60;0.60;;;;;;;5.65;85.19;99931.06;5031586;28;20803;-64
2023/03/18 01:36:27;;;;;;;0.70;0.70;;;;;;;5.71;84.96;99923.41;5031599;28;20205;-64
2023/03/18 01:38:55;;;;;;;0.60;0.60;;;;;;;5.79;84.91;99925.91;5031471;28;20657;-64
2023/03/18 01:41:21;;;;;;;0.60;0.60;;;;;;;5.80;85.13;99928.47;5031560;28;20205;-65
2023/03/18 01:43:48;;;;;;;0.70;0.70;;;;;;;5.83;85.30;99927.63;5031318;28;20673;-64
2023/03/18 01:46:34;;;;;;;0.60;0.60;;;;;;;5.85;85.37;99922.53;5031363;28;20205;-64
2023/03/18 01:49:07;;;;;;;0.60;0.60;;;;;;;5.80;85.98;99922.53;5031196;28;20270;-60
2023/03/18 01:51:35;;;;;;;0.70;0.70;;;;;;;5.72;85.70;99914.06;5031309;28;20724;-59
2023/03/18 01:54:04;;;;;;;0.60;0.60;;;;;;;5.73;85.41;99911.53;5031330;28;20304;-59
2023/03/18 01:56:35;;;;;;;0.67;0.67;;;;;;;5.72;86.14;99919.16;5012307;28;20658;-59
2023/03/18 01:59:02;;;;;;;0.60;0.60;;;;;;;5.71;86.17;99912.41;5030975;28;20219;-59
2023/03/18 02:01:34;;;;;;;0.63;0.63;;;;;;;5.72;86.51;99914.06;5031249;28;20201;-59
2023/03/18 02:04:06;;;;;;;0.50;0.50;;;;;;;5.66;86.28;99899.69;5031456;28;20208;-59
2023/03/18 02:06:33;;;;;;;0.63;0.63;;;;;;;5.78;86.51;99914.91;5031605;28;20201;-59
2023/03/18 02:09:01;;;;;;;0.60;0.60;;;;;;;5.66;86.50;99893.75;5031410;28;20280;-59
2023/03/18 02:11:31;;;;;;;0.50;0.50;;;;;;;5.82;86.59;99915.72;5028319;28;20198;-59
2023/03/18 02:14:00;;;;;;;0.70;0.70;;;;;;;5.80;86.66;99907.28;5030797;28;20281;-59
2023/03/18 02:16:33;;;;;;;0.60;0.60;;;;;;;5.68;86.57;99889.50;5031375;28;20208;-58
2023/03/18 02:19:08;;;;;;;0.63;0.63;;;;;;;5.85;86.31;99913.19;5034915;28;20225;-59
2023/03/18 02:21:44;;;;;;;0.57;0.57;;;;;;;5.87;86.44;99913.22;5029995;28;20201;-58
2023/03/18 02:24:24;;;;;;;0.60;0.60;;;;;;;5.89;86.10;99917.44;5024413;28;20200;-59
2023/03/18 02:26:57;;;;;;;0.70;0.70;;;;;;;5.88;86.04;99915.75;5034340;28;20200;-60
2023/03/18 02:29:27;;;;;;;0.50;0.50;;;;;;;5.88;85.98;99920.84;5030202;28;20198;-65
2023/03/18 02:31:56;;;;;;;0.70;0.70;;;;;;;5.91;86.16;99915.78;5033174;28;20236;-65
2023/03/18 02:34:25;;;;;;;0.60;0.60;;;;;;;5.95;85.82;99922.50;5033653;28;20198;-65
2023/03/18 02:36:52;;;;;;;0.87;0.87;;;;;;;5.97;85.57;99915.75;5033602;28;20205;-65
2023/03/18 02:39:19;;;;;;;0.60;0.60;;;;;;;5.96;85.37;99913.19;5033226;28;20693;-65
2023/03/18 02:41:46;;;;;;;0.60;0.60;;;;;;;5.97;85.32;99920.84;5030948;28;20197;-65
2023/03/18 02:44:13;;;;;;;0.60;0.60;;;;;;;5.98;85.56;99921.69;5033335;28;20204;-65
2023/03/18 02:46:52;;;;;;;0.70;0.70;;;;;;;6.02;85.79;99929.28;5033713;28;20201;-65
2023/03/18 02:49:21;;;;;;;0.60;0.60;;;;;;;6.09;85.36;99925.88;5032426;28;20197;-65
2023/03/18 02:51:49;;;;;;;0.70;0.70;;;;;;;6.08;84.78;99916.53;5034023;28;20202;-59
2023/03/18 02:54:19;;;;;;;0.57;0.57;;;;;;;6.08;84.63;99923.31;5033956;28;20267;-59
2023/03/18 02:56:45;;;;;;;0.57;0.57;;;;;;;5.98;84.30;99907.22;5034101;28;20630;-59
2023/03/18 02:59:13;;;;;;;0.60;0.60;;;;;;;6.10;84.61;99930.13;5033005;28;20225;-59
2023/03/18 03:01:43;;;;;;;0.60;0.60;;;;;;;6.04;84.82;99912.28;5033802;28;20202;-58
2023/03/18 03:04:11;;;;;;;0.60;0.60;;;;;;;6.12;84.92;99930.09;5033829;28;20587;-59
2023/03/18 03:06:39;;;;;;;0.50;0.50;;;;;;;6.12;84.58;99925.00;5034240;28;20288;-58
2023/03/18 03:09:08;;;;;;;0.50;0.50;;;;;;;6.14;84.70;99939.41;5033891;28;20193;-59
2023/03/18 03:11:35;;;;;;;0.60;0.60;;;;;;;6.15;84.92;99930.94;5033581;28;20208;-59
2023/03/18 03:14:03;;;;;;;0.60;0.60;;;;;;;6.17;85.22;99929.22;5033788;28;20201;-58
2023/03/18 03:16:30;;;;;;;0.60;0.60;;;;;;;6.00;85.08;99903.00;5033661;28;20646;-59
2023/03/18 03:18:58;;;;;;;0.70;0.70;;;;;;;6.10;85.45;99927.56;5033673;28;20256;-59
2023/03/18 03:21:26;;;;;;;0.70;0.70;;;;;;;6.15;85.37;99930.94;5033246;28;20244;-59
2023/03/18 03:23:54;;;;;;;0.70;0.70;;;;;;;6.16;85.58;99927.53;5033374;28;20206;-59
2023/03/18 03:26:21;;;;;;;0.50;0.50;;;;;;;6.10;86.13;99932.66;5033532;28;20201;-59
2023/03/18 03:28:48;;;;;;;0.60;0.60;;;;;;;6.08;86.08;99924.16;5032660;28;20201;-58
2023/03/18 03:31:15;;;;;;;0.70;0.70;;;;;;;6.08;86.38;99928.41;5033208;28;20251;-59
2023/03/18 03:33:42;;;;;;;0.57;0.57;;;;;;;6.10;86.12;99929.28;5033140;28;20323;-59
2023/03/18 03:36:13;;;;;;;0.70;0.70;;;;;;;6.11;85.85;99934.34;5033419;28;20197;-59
2023/03/18 03:38:40;;;;;;;0.50;0.50;;;;;;;6.12;86.06;99935.19;5033358;28;20665;-59
2023/03/18 03:41:09;;;;;;;0.70;0.70;;;;;;;6.08;86.47;99936.91;5033218;28;20660;-60
2023/03/18 03:43:36;;;;;;;0.77;0.77;;;;;;;6.09;86.59;99936.06;5032937;28;20685;-58
2023/03/18 03:46:03;;;;;;;0.57;0.57;;;;;;;6.11;86.84;99933.47;5033158;28;20229;-58
2023/03/18 03:48:30;;;;;;;0.50;0.50;;;;;;;6.12;86.88;99936.03;5032916;28;20201;-58
2023/03/18 03:50:57;;;;;;;0.50;0.50;;;;;;;6.12;86.93;99943.69;5032951;28;20730;-58
2023/03/18 03:53:27;;;;;;;0.50;0.50;;;;;;;6.12;86.97;99935.19;5024805;28;20244;-59
2023/03/18 03:55:55;;;;;;;0.60;0.60;;;;;;;6.12;87.18;99940.28;5029409;28;20198;-59
2023/03/18 03:58:22;;;;;;;0.50;0.50;;;;;;;6.15;86.76;99943.66;5020129;28;20257;-58
2023/03/18 04:00:49;;;;;;;0.73;0.73;;;;;;;6.15;87.05;99935.16;5032717;28;20225;-59
2023/03/18 04:03:16;;;;;;;0.50;0.50;;;;;;;6.05;86.75;99921.63;5032832;28;20573;-59
2023/03/18 04:05:43;;;;;;;0.80;0.80;;;;;;;6.15;87.12;99937.72;5032661;28;20205;-59
2023/03/18 04:08:10;;;;;;;0.63;0.63;;;;;;;6.14;87.42;99934.31;5032464;28;20197;-59
2023/03/18 04:10:38;;;;;;;0.70;0.70;;;;;;;6.18;87.22;99937.69;5032783;28;20611;-59
2023/03/18 04:13:06;;;;;;;0.70;0.70;;;;;;;6.18;87.13;99937.69;5032606;28;20251;-58
2023/03/18 04:15:33;;;;;;;0.80;0.80;;;;;;;6.16;87.24;99947.06;5032716;28;20604;-59
2023/03/18 04:18:05;;;;;;;0.57;0.57;;;;;;;6.16;87.08;99945.38;5032352;28;20215;-59
2023/03/18 04:20:34;;;;;;;0.60;0.60;;;;;;;6.18;87.18;99945.34;5032352;28;20221;-59
2023/03/18 04:23:01;;;;;;;0.70;0.70;;;;;;;6.19;87.20;99953.00;5032249;28;20197;-59
2023/03/18 04:25:28;;;;;;;0.57;0.57;;;;;;;6.15;87.40;99948.75;5032281;28;20209;-58
2023/03/18 04:27:57;;;;;;;0.70;0.70;;;;;;;6.12;87.61;99953.84;5032265;28;20304;-59
2023/03/18 04:30:25;;;;;;;0.60;0.60;;;;;;;6.06;87.76;99946.25;5032761;28;20292;-59
2023/03/18 04:32:53;;;;;;;0.70;0.70;;;;;;;6.08;88.63;99953.84;5032007;28;20312;-59
2023/03/18 04:35:22;;;;;;;0.63;0.63;;;;;;;6.00;88.59;99951.34;5032049;28;20285;-59
2023/03/18 04:37:49;;;;;;;0.67;0.67;;;;;;;5.90;88.23;99949.69;5032407;28;20205;-59
2023/03/18 04:40:16;;;;;;;0.80;0.80;;;;;;;5.82;88.34;99951.34;5030964;28;20217;-59
2023/03/18 04:42:44;;;;;;;0.60;0.60;;;;;;;5.72;88.54;99949.69;5023932;28;20232;-59
2023/03/18 04:45:12;;;;;;;0.60;0.60;;;;;;;5.65;88.65;99948.88;5032251;28;20263;-59
2023/03/18 04:47:41;;;;;;;0.67;0.67;;;;;;;5.54;88.72;99949.72;5032125;28;20284;-58
2023/03/18 04:50:11;;;;;;;0.63;0.63;;;;;;;5.56;89.29;99959.03;5023311;28;20204;-65
2023/03/18 04:52:38;;;;;;;0.63;0.63;;;;;;;5.46;89.12;99966.69;5031465;28;20205;-65
2023/03/18 04:55:07;;;;;;;0.70;0.70;;;;;;;5.39;89.79;99965.00;5030842;28;20204;-65
2023/03/18 04:57:36;;;;;;;0.70;0.70;;;;;;;5.38;89.78;99953.97;5028464;28;20259;-65
2023/03/18 05:00:05;;;;;;;0.70;0.70;;;;;;;5.37;90.69;99969.22;5030417;28;20699;-65
2023/03/18 05:02:34;;;;;;;1.17;1.17;;;;;;;5.33;90.77;99962.47;5027861;28;20207;-65
2023/03/18 05:05:01;;;;;;;0.70;0.70;;;;;;;5.25;90.99;99953.13;5031027;28;20653;-65
2023/03/18 05:07:28;;;;;;;0.70;0.70;;;;;;;5.34;91.14;99956.50;5021521;28;20645;-65
2023/03/18 05:09:54;;;;;;;0.60;0.60;;;;;;;5.27;91.21;99956.50;5024317;28;20563;-65
2023/03/18 05:12:21;;;;;;;0.63;0.63;;;;;;;5.18;90.98;99955.66;5025273;28;20201;-65
2023/03/18 05:14:48;;;;;;;0.50;0.50;;;;;;;5.16;90.53;99965.84;5027886;28;20665;-65
2023/03/18 05:17:16;;;;;;;0.60;0.60;;;;;;;4.99;91.13;99959.88;5025235;28;20675;-65
2023/03/18 05:19:46;;;;;;;0.63;0.63;;;;;;;4.92;91.46;99950.56;5022973;28;20636;-65
2023/03/18 05:22:14;;;;;;;0.73;0.73;;;;;;;4.98;91.71;99955.63;5028995;28;20208;-64
2023/03/18 05:24:42;;;;;;;0.77;0.77;;;;;;;4.99;92.03;99959.88;5021820;28;20588;-65
2023/03/18 05:27:10;;;;;;;0.50;0.50;;;;;;;5.09;92.50;99960.75;5030655;28;20279;-65
2023/03/18 05:29:39;;;;;;;0.80;0.80;;;;;;;5.08;92.30;99959.88;5025118;28;20259;-65
2023/03/18 05:32:06;;;;;;;0.60;0.60;;;;;;;5.13;91.82;99963.31;5024651;28;20227;-65
2023/03/18 05:34:34;;;;;;;0.60;0.60;;;;;;;5.18;90.90;99968.38;5018364;28;20238;-65
2023/03/18 05:37:03;;;;;;;0.67;0.67;;;;;;;5.22;90.75;99972.63;5008945;28;20207;-65
2023/03/18 05:39:30;;;;;;;0.70;0.70;;;;;;;5.24;90.61;99981.94;5025999;28;20673;-65
2023/03/18 05:41:57;;;;;;;0.70;0.70;;;;;;;5.29;90.81;99985.34;5030419;28;20272;-65
2023/03/18 05:44:24;;;;;;;0.60;0.60;;;;;;;5.34;90.79;99992.09;5026078;28;20670;-65
2023/03/18 05:46:51;;;;;;;0.60;0.60;;;;;;;5.39;90.63;99990.41;5030454;28;20217;-65
2023/03/18 05:49:18;;;;;;;1.07;1.07;;;;;;;5.42;90.58;99988.72;5030625;28;20727;-65
2023/03/18 05:51:45;;;;;;;0.73;0.73;;;;;;;5.43;90.02;99992.13;5031016;28;20190;-65
2023/03/18 05:54:15;;;;;;;0.90;0.90;;;;;;;5.38;90.02;99994.66;5030469;28;20669;-65
2023/03/18 05:56:42;;;;;;;0.50;0.50;;;;;;;5.47;90.10;99988.72;5031545;28;20296;-65
2023/03/18 05:59:09;;;;;;;0.70;0.70;;;;;;;5.47;90.51;99987.00;5034046;28;20205;-65
2023/03/18 06:01:36;;;;;;;0.90;0.90;;;;;;;5.53;90.41;99978.53;5034318;28;20324;-65
2023/03/18 06:04:05;;;;;;;0.60;0.60;;;;;;;5.54;90.84;99980.22;5029089;28;20264;-65
2023/03/18 06:06:32;;;;;;;0.73;0.73;;;;;;;5.40;90.18;99951.41;5034024;28;20310;-64
2023/03/18 06:08:59;;;;;;;0.50;0.50;;;;;;;5.50;90.71;99988.69;5024722;28;20194;-65
2023/03/18 06:11:28;;;;;;;0.70;0.70;;;;;;;5.55;91.47;99987.03;5031998;28;20296;-65
2023/03/18 06:13:55;;;;;;;0.60;0.60;;;;;;;5.57;92.05;99985.31;5034104;28;20681;-65
2023/03/18 06:16:23;;;;;;;0.77;0.77;;;;;;;5.65;91.83;99981.09;5028734;28;20296;-65
2023/03/18 06:18:49;;;;;;;0.77;0.77;;;;;;;5.69;90.94;99977.66;5030252;28;20198;-65
2023/03/18 06:21:16;;;;;;;0.70;0.70;;;;;;;5.71;90.99;99975.97;5033154;28;20217;-65
2023/03/18 06:23:43;;;;;;;0.60;0.60;;;;;;;5.76;91.29;99976.81;5023256;28;20197;-64
2023/03/18 06:26:10;;;;;;;0.60;0.60;;;;;;;5.83;91.10;99978.50;5027148;28;20301;-65
2023/03/18 06:28:39;;;;;;;0.63;0.63;;;;;;;5.85;90.81;99981.88;5024352;28;20218;-65
2023/03/18 06:31:05;;;;;;;0.70;0.70;;;;;;;5.92;90.38;99973.41;5029742;28;20198;-65
2023/03/18 06:33:32;;;;;;;0.60;0.60;;;;;;;6.01;89.77;99968.28;5032236;28;20921;-65
2023/03/18 06:36:01;;;;;;;0.50;0.50;;;;;;;6.00;88.80;99975.94;5031255;28;20233;-65
2023/03/18 06:38:28;;;;;;;0.70;0.70;;;;;;;5.98;89.05;99967.50;5026280;28;20217;-65
2023/03/18 06:40:55;;;;;;;0.60;0.60;;;;;;;6.04;89.84;99975.91;5027645;28;20245;-65
2023/03/18 06:43:22;;;;;;;0.70;0.70;;;;;;;6.10;89.85;99968.28;5029730;28;20236;-65
2023/03/18 06:45:51;;;;;;;0.70;0.70;;;;;;;6.10;88.84;99965.75;5032267;28;20202;-65
2023/03/18 06:48:18;;;;;;;0.63;0.63;;;;;;;6.10;89.19;99968.28;5028858;28;20205;-65
2023/03/18 06:50:45;;;;;;;0.67;0.67;;;;;;;6.03;90.39;99941.16;5029561;28;20554;-65
2023/03/18 06:53:13;;;;;;;0.90;0.90;;;;;;;6.13;90.09;99953.00;5031266;28;20296;-65
2023/03/18 06:55:40;;;;;;;0.63;0.63;;;;;;;6.23;89.84;99964.84;5028507;28;20259;-65
2023/03/18 06:58:07;;;;;;;0.50;0.50;;;;;;;6.30;90.17;99966.50;5030673;28;20267;-65
2023/03/18 07:00:34;;;;;;;0.80;0.80;;;;;;;6.36;89.92;99944.44;5028184;28;20283;-65
2023/03/18 07:03:03;;;;;;;0.50;0.50;;;;;;;6.61;88.77;99962.13;5029820;28;20206;-64
2023/03/18 07:05:31;;;;;;;0.50;0.50;;;;;;;6.71;88.23;99937.44;5029189;28;20218;-65
2023/03/18 07:07:58;;;;;;;0.73;0.73;;;;;;;7.07;86.27;99962.69;5031215;28;20220;-65
2023/03/18 07:10:28;;;;;;;0.93;0.93;;;;;;;7.15;85.05;99950.72;5029498;28;20201;-65
2023/03/18 07:12:56;;;;;;;0.50;0.50;;;;;;;7.24;84.34;99958.31;5031845;28;20240;-65
2023/03/18 07:15:25;;;;;;;0.50;0.50;;;;;;;7.34;82.48;99957.38;5025673;28;20205;-65
2023/03/18 07:17:52;;;;;;;0.60;0.60;;;;;;;7.36;82.39;99960.78;5015180;28;20616;-65
2023/03/18 07:20:22;;;;;;;1.07;1.07;;;;;;;7.52;82.13;99958.94;5019421;28;20209;-65
2023/03/18 07:22:50;;;;;;;0.60;0.60;;;;;;;7.66;82.10;99958.78;5027116;28;20251;-65
2023/03/18 07:25:17;;;;;;;0.63;0.63;;;;;;;7.74;80.90;99964.69;5029199;28;20201;-65
2023/03/18 07:27:44;;;;;;;0.70;0.70;;;;;;;7.77;80.09;99957.84;5017371;28;20336;-65
2023/03/18 07:30:12;;;;;;;0.50;0.50;;;;;;;7.84;79.27;99953.53;5025664;28;20205;-66
2023/03/18 07:32:39;;;;;;;0.60;0.60;;;;;;;7.93;79.74;99958.53;5025975;28;20233;-65
2023/03/18 07:35:09;;;;;;;0.60;0.60;;;;;;;8.00;80.87;99947.38;5040021;28;20202;-65
2023/03/18 07:37:39;;;;;;;1.10;1.10;;;;;;;8.07;80.94;99950.72;5031188;28;20202;-65
2023/03/18 07:40:08;;;;;;;1.23;1.13;;;;;;;8.21;79.89;99956.50;5030642;28;20295;-65
2023/03/18 07:42:35;;;;;;;0.80;0.80;;;;;;;8.27;80.39;99952.16;5030577;28;20221;-65
2023/03/18 07:45:01;;;;;;;0.70;0.70;;;;;;;8.38;79.38;99958.03;5044005;28;20205;-65
2023/03/18 07:47:29;;;;;;;0.50;0.50;;;;;;;8.42;77.14;99949.47;5026321;28;20255;-65
2023/03/18 07:49:56;;;;;;;0.60;0.60;;;;;;;8.61;78.26;99949.22;5038328;28;20260;-65
2023/03/18 07:52:23;;;;;;;0.50;0.50;;;;;;;8.61;77.29;99954.31;5027894;28;20208;-65
2023/03/18 07:54:52;;;;;;;0.50;0.50;;;;;;;8.65;75.92;99963.66;5029458;28;20655;-65
2023/03/18 07:57:19;;;;;;;0.60;0.60;;;;;;;8.64;75.24;99965.34;5025025;28;20236;-65
2023/03/18 07:59:46;;;;;;;0.50;0.50;;;;;;;8.74;75.74;99972.03;5029651;28;20441;-68
2023/03/18 08:02:14;;;;;;;0.80;0.80;;;;;;;8.87;75.85;99977.81;5030704;28;20213;-68
2023/03/18 08:04:42;;;;;;;0.57;0.57;;;;;;;8.94;74.80;99975.16;5028739;28;20291;-68
2023/03/18 08:07:09;;;;;;;0.63;0.63;;;;;;;9.01;71.92;99981.03;5028975;28;20224;-68
2023/03/18 08:09:37;;;;;;;0.63;0.63;;;;;;;9.02;72.10;99977.59;5030203;28;20563;-68
2023/03/18 08:12:05;;;;;;;0.53;0.53;;;;;;;9.03;72.60;99983.56;5031590;28;20656;-68
2023/03/18 08:14:32;;;;;;;0.60;0.60;;;;;;;9.05;71.49;99986.97;5031670;28;20271;-68
2023/03/18 08:16:59;;;;;;;0.40;0.40;;;;;;;8.98;71.65;99979.34;5031737;28;20201;-68
2023/03/18 08:19:27;;;;;;;0.50;0.50;;;;;;;9.10;71.87;99980.91;5031843;28;20216;-68
2023/03/18 08:21:54;;;;;;;0.73;0.73;;;;;;;9.11;71.78;99990.25;5031642;28;20735;-68
2023/03/18 08:24:21;;;;;;;0.50;0.50;;;;;;;9.18;71.03;99989.28;5043582;28;20211;-68
2023/03/18 08:26:48;;;;;;;0.60;0.60;;;;;;;9.20;71.08;99981.59;5051126;28;20204;-67
2023/03/18 08:29:16;;;;;;;0.50;0.50;;;;;;;9.27;70.99;99984.03;5051128;28;20196;-68
2023/03/18 08:31:43;;;;;;;0.70;0.70;;;;;;;9.38;70.34;99977.03;5028381;28;20194;-68
2023/03/18 08:34:10;;;;;;;0.60;0.60;;;;;;;9.47;69.58;99971.75;5031068;28;20204;-68
2023/03/18 08:36:37;;;;;;;0.53;0.53;;;;;;;9.62;68.73;99974.94;5020719;28;20669;-68
2023/03/18 08:39:04;;;;;;;0.50;0.50;;;;;;;9.64;69.81;99957.84;5027934;28;20210;-68
2023/03/18 08:41:32;;;;;;;0.60;0.60;;;;;;;9.84;68.24;99973.69;5008276;28;20218;-68
2023/03/18 08:43:59;;;;;;;0.50;0.50;;;;;;;9.95;68.71;99974.34;5029689;28;20197;-68
2023/03/18 08:46:27;;;;;;;0.50;0.50;;;;;;;10.06;67.19;99972.41;5031075;28;20263;-68
2023/03/18 08:48:54;;;;;;;0.50;0.50;;;;;;;10.24;66.44;99977.22;5030862;28;20201;-68
2023/03/18 08:51:22;;;;;;;0.60;0.60;;;;;;;10.16;66.40;99948.34;5019777;28;20678;-68
2023/03/18 08:53:48;;;;;;;0.50;0.50;;;;;;;10.50;64.78;99987.78;5026311;28;20194;-68
2023/03/18 08:56:15;;;;;;;0.77;0.77;;;;;;;10.47;62.42;99992.97;5030566;28;20689;-68
2023/03/18 08:58:44;;;;;;;0.60;0.60;;;;;;;10.40;61.83;99993.97;5030694;28;20201;-68
2023/03/18 09:01:11;;;;;;;0.40;0.40;;;;;;;10.42;61.56;99997.38;5030617;28;20221;-68
2023/03/18 09:03:39;;;;;;;0.60;0.60;;;;;;;10.46;62.41;99993.88;5027569;28;20217;-68
2023/03/18 09:06:07;;;;;;;0.50;0.50;;;;;;;10.51;63.40;99994.63;5028357;28;20531;-67
2023/03/18 09:08:34;;;;;;;0.50;0.50;;;;;;;10.41;60.76;99992.25;5030877;28;20257;-67
2023/03/18 09:11:00;;;;;;;0.40;0.40;;;;;;;10.31;61.19;99989.03;5028025;28;20229;-68
2023/03/18 09:13:27;;;;;;;0.60;0.60;;;;;;;10.38;61.66;100000.84;5030079;28;20197;-68
2023/03/18 09:15:54;;;;;;;0.50;0.50;;;;;;;10.47;63.32;99985.28;5024745;28;20208;-68
2023/03/18 09:18:21;;;;;;;0.50;0.50;;;;;;;10.53;63.79;99994.59;5030634;28;20578;-68
2023/03/18 09:20:50;;;;;;;0.47;0.47;;;;;;;10.61;63.06;99991.84;5030487;28;20208;-68
2023/03/18 09:23:17;;;;;;;0.87;0.87;;;;;;;10.56;61.41;99986.00;5030604;28;20209;-68
2023/03/18 09:25:45;;;;;;;0.40;0.40;;;;;;;10.68;61.24;99988.28;5029786;28;20198;-68
2023/03/18 09:28:13;;;;;;;0.50;0.50;;;;;;;10.60;59.74;99985.88;5030070;28;20194;-68
2023/03/18 09:30:40;;;;;;;0.43;0.43;;;;;;;10.47;61.39;99977.59;5030687;28;20201;-67
2023/03/18 09:33:08;;;;;;;0.80;0.80;;;;;;;10.52;60.50;99973.25;5022317;28;20225;-67
2023/03/18 09:35:35;;;;;;;0.70;0.70;;;;;;;10.57;59.41;100001.31;5038749;28;20205;-67
2023/03/18 09:38:03;;;;;;;0.50;0.50;;;;;;;10.54;59.18;99984.28;5041795;28;20292;-67
2023/03/18 09:40:32;;;;;;;0.40;0.40;;;;;;;10.61;58.10;100007.25;5035618;28;20280;-67
2023/03/18 09:43:14;;;;;;;0.60;0.60;;;;;;;10.56;57.88;100014.19;5048431;28;20658;-66
2023/03/18 09:45:53;;;;;;;0.50;0.50;;;;;;;10.41;58.92;100005.94;5040572;28;20207;-68
2023/03/18 09:48:52;;;;;;;0.50;0.50;;;;;;;10.49;59.93;100000.66;5035868;28;20584;-65
2023/03/18 09:51:33;;;;;;;0.50;0.50;;;;;;;10.54;59.39;100012.50;5034799;28;20197;-65
2023/03/18 09:54:05;;;;;;;0.60;0.60;;;;;;;10.61;59.44;100002.09;5032081;28;20197;-67
2023/03/18 09:56:35;;;;;;;0.60;0.60;;;;;;;10.49;60.31;100019.44;5040326;28;20201;-67
2023/03/18 09:59:06;;;;;;;0.40;0.40;;;;;;;10.25;60.01;100004.53;5035678;28;20658;-67
2023/03/18 10:01:37;;;;;;;0.90;0.90;;;;;;;10.26;61.35;100015.63;5039938;28;20228;-67
2023/03/18 10:04:11;;;;;;;0.60;0.60;;;;;;;10.26;61.78;100024.16;5039241;28;20637;-67
2023/03/18 10:06:41;;;;;;;0.50;0.50;;;;;;;10.28;62.01;100024.97;5038644;28;20296;-67
2023/03/18 10:09:17;;;;;;;0.53;0.53;;;;;;;10.39;62.16;100023.06;5044622;28;20588;-67
2023/03/18 10:11:46;;;;;;;0.50;0.50;;;;;;;10.46;62.60;100016.94;5039343;28;20199;-67
2023/03/18 10:14:27;;;;;;;0.50;0.50;;;;;;;10.31;62.95;100029.19;5037780;28;20225;-64
2023/03/18 10:17:06;;;;;;;0.70;0.70;;;;;;;10.18;61.15;100028.56;5033751;28;20201;-63
2023/03/18 10:19:33;;;;;;;0.50;0.50;;;;;;;10.18;62.13;100028.56;5021488;28;20201;-64
2023/03/18 10:22:39;;;;;;;0.60;0.60;;;;;;;10.28;62.11;100030.09;5028303;28;21965;-64
2023/03/18 10:25:18;;;;;;;0.70;0.70;;;;;;;10.25;62.73;100025.03;5000860;28;20597;-62
2023/03/18 10:27:56;;;;;;;1.07;1.07;;;;;;;10.32;63.34;100030.88;5023641;28;20201;-65
2023/03/18 10:30:48;;;;;;;0.70;0.70;;;;;;;10.33;63.41;100028.31;5034987;28;20201;-65
2023/03/18 10:33:22;;;;;;;0.40;0.40;;;;;;;10.48;63.60;100030.56;5030082;28;20264;-65
2023/03/18 10:35:59;;;;;;;0.50;0.50;;;;;;;10.55;60.59;100031.28;5029933;28;20648;-63
2023/03/18 10:38:32;;;;;;;0.40;0.40;;;;;;;10.58;60.30;100038.06;5030246;28;20203;-64
2023/03/18 10:41:01;;;;;;;0.97;0.97;;;;;;;10.63;59.83;100028.59;5026303;28;20214;-64
2023/03/18 10:43:31;;;;;;;0.60;0.60;;;;;;;10.72;59.33;100026.66;5031813;28;20213;-64
2023/03/18 10:46:02;;;;;;;0.47;0.47;;;;;;;10.61;57.12;100032.88;5031380;28;20271;-64
2023/03/18 10:48:33;;;;;;;0.60;0.60;;;;;;;10.52;54.55;100026.22;5014563;28;20198;-65
2023/03/18 10:51:09;;;;;;;0.40;0.40;;;;;;;10.75;56.09;100030.88;5016437;28;20221;-64
2023/03/18 10:53:42;;;;;;;1.53;1.47;;;;;;;10.59;58.69;100012.41;5032414;28;20190;-63
2023/03/18 10:56:12;;;;;;;0.43;0.43;;;;;;;10.55;59.09;100023.59;5032552;28;20201;-65
2023/03/18 10:58:40;;;;;;;0.50;0.50;;;;;;;10.37;57.75;100022.22;5032511;28;20400;-64
2023/03/18 11:01:09;;;;;;;0.60;0.60;;;;;;;10.30;58.86;100023.25;5031959;28;20221;-63
2023/03/18 11:03:40;;;;;;;0.40;0.40;;;;;;;10.15;59.60;100015.81;5030657;28;20253;-65
2023/03/18 11:06:17;;;;;;;0.77;0.77;;;;;;;10.25;59.76;100024.19;5032264;28;20985;-63
2023/03/18 11:08:47;;;;;;;0.50;0.50;;;;;;;10.53;60.34;100021.06;5025970;28;20209;-63
2023/03/18 11:11:21;;;;;;;0.50;0.50;;;;;;;10.40;58.20;100014.47;5033833;28;20703;-63
2023/03/18 11:13:51;;;;;;;0.60;0.60;;;;;;;10.47;58.72;100031.44;5034004;28;20205;-64
2023/03/18 11:16:33;;;;;;;0.57;0.57;;;;;;;10.47;60.10;100026.31;5033933;28;20220;-63
2023/03/18 11:19:08;;;;;;;0.50;0.50;;;;;;;10.38;58.48;100023.94;5033810;28;20597;-64
2023/03/18 11:21:37;;;;;;;0.60;0.60;;;;;;;10.46;59.16;100028.91;5033670;28;20205;-64
2023/03/18 11:24:09;;;;;;;0.70;0.70;;;;;;;10.31;58.68;100012.09;5033765;28;20763;-63
2023/03/18 11:26:53;;;;;;;0.60;0.60;;;;;;;10.47;58.51;100021.19;5033764;28;20657;-63
2023/03/18 11:29:24;;;;;;;0.50;0.50;;;;;;;10.33;58.99;100025.75;5033484;28;20209;-63
2023/03/18 11:31:56;;;;;;;0.60;0.60;;;;;;;10.27;58.86;100018.19;5036089;28;20566;-63
2023/03/18 11:34:24;;;;;;;0.57;0.57;;;;;;;10.48;59.67;100022.88;5053243;28;20224;-63
2023/03/18 11:36:57;;;;;;;0.60;0.60;;;;;;;10.32;57.63;100016.38;5053373;28;20219;-64
2023/03/18 11:39:26;;;;;;;0.60;0.60;;;;;;;10.49;58.34;100010.91;5053248;28;20250;-64
2023/03/18 11:41:54;;;;;;;0.50;0.50;;;;;;;10.71;58.43;100014.72;5053155;28;20212;-63
2023/03/18 11:44:28;;;;;;;0.70;0.70;;;;;;;10.74;58.07;100008.66;5053085;28;20287;-63
2023/03/18 11:47:01;;;;;;;0.47;0.47;;;;;;;10.87;58.91;100015.22;5053504;28;20740;-63